sensor_id;sensor_type;location;lat;lon;timestamp;pressure;altitude;pressure_sealevel;temperature;humidity
55679;BME280;41573;51.446;-2.018;2023-08-06T00:00:17;101922.97;;;12.87;100.00
55679;BME280;41573;51.446;-2.018;2023-08-06T00:02:43;101925.97;;;12.81;100.00
55679;BME280;41573;51.446;-2.018;2023-08-06T00:05:08;101926.13;;;12.78;100.00
55679;BME280;41573;51.446;-2.018;2023-08-06T00:07:33;101919.88;;;12.77;100.00
55679;BME280;41573;51.446;-2.018;2023-08-06T00:09:58;101914.84;;;12.71;100.00
55679;BME280;41573;51.446;-2.018;2023-08-06T00:12:24;101901.88;;;12.64;100.00
55679;BME280;41573;51.446;-2.018;2023-08-06T00:14:52;101907.59;;;12.73;100.00
55679;BME280;41573;51.446;-2.018;2023-08-06T00:17:18;101904.94;;;12.73;100.00
55679;BME280;41573;51.446;-2.018;2023-08-06T00:19:43;101904.16;;;12.71;100.00
55679;BME280;41573;51.446;-2.018;2023-08-06T00:22:08;101897.06;;;12.70;100.00
55679;BME280;41573;51.446;-2.018;2023-08-06T00:24:34;101901.72;;;12.67;100.00
55679;BME280;41573;51.446;-2.018;2023-08-06T00:26:59;101894.78;;;12.63;100.00
55679;BME280;41573;51.446;-2.018;2023-08-06T00:29:25;101898.38;;;12.62;100.00
55679;BME280;41573;51.446;-2.018;2023-08-06T00:31:50;101903.72;;;12.62;100.00
55679;BME280;41573;51.446;-2.018;2023-08-06T00:34:15;101898.69;;;12.55;100.00
55679;BME280;41573;51.446;-2.018;2023-08-06T00:36:41;101895.09;;;12.56;100.00
55679;BME280;41573;51.446;-2.018;2023-08-06T00:39:06;101889.72;;;12.56;100.00
55679;BME280;41573;51.446;-2.018;2023-08-06T00:41:32;101889.44;;;12.63;100.00
55679;BME280;41573;51.446;-2.018;2023-08-06T00:43:57;101886.19;;;12.56;100.00
55679;BME280;41573;51.446;-2.018;2023-08-06T00:46:22;101884.41;;;12.56;100.00
55679;BME280;41573;51.446;-2.018;2023-08-06T00:48:48;101884.41;;;12.56;100.00
55679;BME280;41573;51.446;-2.018;2023-08-06T00:51:14;101872.81;;;12.56;100.00
55679;BME280;41573;51.446;-2.018;2023-08-06T00:53:39;101872.13;;;12.52;100.00
55679;BME280;41573;51.446;-2.018;2023-08-06T00:56:05;101861.84;;;12.43;100.00
55679;BME280;41573;51.446;-2.018;2023-08-06T00:58:31;101876.88;;;12.46;100.00
55679;BME280;41573;51.446;-2.018;2023-08-06T01:00:56;101886.72;;;12.45;100.00
55679;BME280;41573;51.446;-2.018;2023-08-06T01:03:21;101869.09;;;12.41;100.00
55679;BME280;41573;51.446;-2.018;2023-08-06T01:05:46;101850.03;;;12.30;100.00
55679;BME280;41573;51.446;-2.018;2023-08-06T01:08:40;101843.94;;;12.26;100.00
55679;BME280;41573;51.446;-2.018;2023-08-06T01:13:38;101831.97;;;12.16;100.00
55679;BME280;41573;51.446;-2.018;2023-08-06T01:16:06;101825.03;;;12.12;100.00
55679;BME280;41573;51.446;-2.018;2023-08-06T01:18:32;101833.97;;;12.11;100.00
55679;BME280;41573;51.446;-2.018;2023-08-06T01:20:57;101835.88;;;12.09;100.00
55679;BME280;41573;51.446;-2.018;2023-08-06T01:23:23;101825.34;;;12.05;100.00
55679;BME280;41573;51.446;-2.018;2023-08-06T01:28:27;101816.66;;;12.00;100.00
55679;BME280;41573;51.446;-2.018;2023-08-06T01:30:55;101808.88;;;11.96;100.00
55679;BME280;41573;51.446;-2.018;2023-08-06T01:33:22;101787.75;;;11.89;100.00
55679;BME280;41573;51.446;-2.018;2023-08-06T01:35:48;101781.72;;;11.86;100.00
55679;BME280;41573;51.446;-2.018;2023-08-06T01:38:14;101781.94;;;11.81;100.00
55679;BME280;41573;51.446;-2.018;2023-08-06T01:40:40;101775.63;;;11.82;100.00
55679;BME280;41573;51.446;-2.018;2023-08-06T01:43:05;101769.00;;;11.72;100.00
55679;BME280;41573;51.446;-2.018;2023-08-06T01:45:31;101769.00;;;11.72;100.00
55679;BME280;41573;51.446;-2.018;2023-08-06T01:47:56;101776.94;;;11.73;100.00
55679;BME280;41573;51.446;-2.018;2023-08-06T01:50:21;101771.75;;;11.70;100.00
55679;BME280;41573;51.446;-2.018;2023-08-06T01:52:47;101762.06;;;11.68;100.00
55679;BME280;41573;51.446;-2.018;2023-08-06T01:55:15;101757.56;;;11.70;100.00
55679;BME280;41573;51.446;-2.018;2023-08-06T01:57:40;101751.53;;;11.65;100.00
55679;BME280;41573;51.446;-2.018;2023-08-06T02:00:06;101728.59;;;11.61;100.00
55679;BME280;41573;51.446;-2.018;2023-08-06T02:02:31;101731.66;;;11.72;100.00
55679;BME280;41573;51.446;-2.018;2023-08-06T02:04:56;101708.84;;;11.65;100.00
55679;BME280;41573;51.446;-2.018;2023-08-06T02:07:23;101686.38;;;11.51;100.00
55679;BME280;41573;51.446;-2.018;2023-08-06T02:09:48;101682.63;;;11.55;100.00
55679;BME280;41573;51.446;-2.018;2023-08-06T02:12:13;101650.28;;;11.43;100.00
55679;BME280;41573;51.446;-2.018;2023-08-06T02:14:39;101658.28;;;11.43;100.00
55679;BME280;41573;51.446;-2.018;2023-08-06T02:17:04;101660.75;;;11.47;100.00
55679;BME280;41573;51.446;-2.018;2023-08-06T02:19:29;101642.28;;;11.43;100.00
55679;BME280;41573;51.446;-2.018;2023-08-06T02:21:55;101628.09;;;11.42;100.00
55679;BME280;41573;51.446;-2.018;2023-08-06T02:24:20;101617.72;;;11.36;100.00
55679;BME280;41573;51.446;-2.018;2023-08-06T02:26:45;101610.50;;;11.38;100.00
55679;BME280;41573;51.446;-2.018;2023-08-06T02:29:11;101605.03;;;11.41;100.00
55679;BME280;41573;51.446;-2.018;2023-08-06T02:31:37;101602.25;;;11.44;100.00
55679;BME280;41573;51.446;-2.018;2023-08-06T02:34:02;101591.56;;;11.44;100.00
55679;BME280;41573;51.446;-2.018;2023-08-06T02:36:27;101584.41;;;11.45;100.00
55679;BME280;41573;51.446;-2.018;2023-08-06T02:38:54;101575.69;;;11.41;100.00
55679;BME280;41573;51.446;-2.018;2023-08-06T02:41:20;101574.75;;;11.42;100.00
55679;BME280;41573;51.446;-2.018;2023-08-06T02:43:45;101562.56;;;11.36;100.00
55679;BME280;41573;51.446;-2.018;2023-08-06T02:46:10;101556.66;;;11.30;100.00
55679;BME280;41573;51.446;-2.018;2023-08-06T02:48:35;101546.81;;;11.32;100.00
55679;BME280;41573;51.446;-2.018;2023-08-06T02:51:01;101544.13;;;11.32;100.00
55679;BME280;41573;51.446;-2.018;2023-08-06T02:53:26;101541.31;;;11.35;100.00
55679;BME280;41573;51.446;-2.018;2023-08-06T02:55:51;101546.06;;;11.28;100.00
55679;BME280;41573;51.446;-2.018;2023-08-06T02:58:17;101549.69;;;11.27;100.00
55679;BME280;41573;51.446;-2.018;2023-08-06T03:00:43;101540.97;;;11.24;100.00
55679;BME280;41573;51.446;-2.018;2023-08-06T03:03:08;101540.63;;;11.12;100.00
55679;BME280;41573;51.446;-2.018;2023-08-06T03:05:34;101541.63;;;11.10;100.00
55679;BME280;41573;51.446;-2.018;2023-08-06T03:07:59;101545.25;;;11.09;100.00
55679;BME280;41573;51.446;-2.018;2023-08-06T03:10:24;101557.41;;;11.14;100.00
55679;BME280;41573;51.446;-2.018;2023-08-06T03:12:50;101558.03;;;11.19;100.00
55679;BME280;41573;51.446;-2.018;2023-08-06T03:15:15;101560.78;;;11.18;100.00
55679;BME280;41573;51.446;-2.018;2023-08-06T03:17:43;101547.53;;;11.16;100.00
55679;BME280;41573;51.446;-2.018;2023-08-06T03:20:09;101543.94;;;11.17;100.00
55679;BME280;41573;51.446;-2.018;2023-08-06T03:22:34;101544.88;;;11.16;100.00
55679;BME280;41573;51.446;-2.018;2023-08-06T03:25:00;101543.47;;;11.27;100.00
55679;BME280;41573;51.446;-2.018;2023-08-06T03:27:25;101525.69;;;11.27;100.00
55679;BME280;41573;51.446;-2.018;2023-08-06T03:29:50;101523.06;;;11.26;100.00
55679;BME280;41573;51.446;-2.018;2023-08-06T03:32:16;101515.88;;;11.28;100.00
55679;BME280;41573;51.446;-2.018;2023-08-06T03:34:41;101510.63;;;11.26;100.00
55679;BME280;41573;51.446;-2.018;2023-08-06T03:37:06;101498.22;;;11.25;100.00
55679;BME280;41573;51.446;-2.018;2023-08-06T03:39:31;101484.97;;;11.24;100.00
55679;BME280;41573;51.446;-2.018;2023-08-06T03:41:57;101474.00;;;11.30;100.00
55679;BME280;41573;51.446;-2.018;2023-08-06T03:44:22;101462.88;;;11.21;100.00
55679;BME280;41573;51.446;-2.018;2023-08-06T03:46:47;101449.66;;;11.18;100.00
55679;BME280;41573;51.446;-2.018;2023-08-06T03:49:13;101441.63;;;11.20;100.00
55679;BME280;41573;51.446;-2.018;2023-08-06T03:51:38;101442.47;;;11.20;100.00
55679;BME280;41573;51.446;-2.018;2023-08-06T03:54:03;101430.72;;;11.25;100.00
55679;BME280;41573;51.446;-2.018;2023-08-06T03:56:28;101432.41;;;11.26;100.00
55679;BME280;41573;51.446;-2.018;2023-08-06T03:58:54;101425.63;;;11.20;100.00
55679;BME280;41573;51.446;-2.018;2023-08-06T04:01:19;101410.56;;;11.19;100.00
55679;BME280;41573;51.446;-2.018;2023-08-06T04:03:44;101409.75;;;11.17;100.00
55679;BME280;41573;51.446;-2.018;2023-08-06T04:06:09;101408.97;;;11.15;100.00
55679;BME280;41573;51.446;-2.018;2023-08-06T04:08:35;101417.66;;;11.18;100.00
55679;BME280;41573;51.446;-2.018;2023-08-06T04:11:00;101419.56;;;11.16;100.00
55679;BME280;41573;51.446;-2.018;2023-08-06T04:13:25;101420.34;;;11.18;100.00
55679;BME280;41573;51.446;-2.018;2023-08-06T04:15:51;101415.00;;;11.18;100.00
55679;BME280;41573;51.446;-2.018;2023-08-06T04:18:16;101410.72;;;11.16;100.00
55679;BME280;41573;51.446;-2.018;2023-08-06T04:20:47;101416.25;;;11.11;100.00
55679;BME280;41573;51.446;-2.018;2023-08-06T04:23:14;101403.06;;;11.08;100.00
55679;BME280;41573;51.446;-2.018;2023-08-06T04:25:39;101398.81;;;11.04;100.00
55679;BME280;41573;51.446;-2.018;2023-08-06T04:28:05;101394.59;;;11.00;100.00
55679;BME280;41573;51.446;-2.018;2023-08-06T04:30:30;101397.41;;;10.97;100.00
55679;BME280;41573;51.446;-2.018;2023-08-06T04:32:59;101392.06;;;10.97;100.00
55679;BME280;41573;51.446;-2.018;2023-08-06T04:35:24;101387.63;;;10.97;100.00
55679;BME280;41573;51.446;-2.018;2023-08-06T04:37:49;101385.00;;;10.96;100.00
55679;BME280;41573;51.446;-2.018;2023-08-06T04:40:15;101378.81;;;10.95;100.00
55679;BME280;41573;51.446;-2.018;2023-08-06T04:42:40;101373.56;;;10.94;100.00
55679;BME280;41573;51.446;-2.018;2023-08-06T04:45:05;101377.31;;;10.90;100.00
55679;BME280;41573;51.446;-2.018;2023-08-06T04:47:31;101369.50;;;10.86;100.00
55679;BME280;41573;51.446;-2.018;2023-08-06T04:49:56;101370.19;;;10.90;100.00
55679;BME280;41573;51.446;-2.018;2023-08-06T04:52:22;101376.41;;;10.91;100.00
55679;BME280;41573;51.446;-2.018;2023-08-06T04:54:47;101383.47;;;10.92;100.00
55679;BME280;41573;51.446;-2.018;2023-08-06T04:57:12;101387.06;;;10.91;100.00
55679;BME280;41573;51.446;-2.018;2023-08-06T04:59:38;101394.25;;;10.89;100.00
55679;BME280;41573;51.446;-2.018;2023-08-06T05:02:04;101392.81;;;10.81;100.00
55679;BME280;41573;51.446;-2.018;2023-08-06T05:04:29;101402.69;;;10.79;100.00
55679;BME280;41573;51.446;-2.018;2023-08-06T05:06:54;101410.53;;;10.82;100.00
55679;BME280;41573;51.446;-2.018;2023-08-06T05:09:20;101412.44;;;10.80;100.00
55679;BME280;41573;51.446;-2.018;2023-08-06T05:11:46;101423.78;;;10.84;100.00
55679;BME280;41573;51.446;-2.018;2023-08-06T05:14:11;101418.38;;;10.85;100.00
55679;BME280;41573;51.446;-2.018;2023-08-06T05:16:36;101410.53;;;10.82;100.00
55679;BME280;41573;51.446;-2.018;2023-08-06T05:19:04;101408.53;;;10.88;100.00
55679;BME280;41573;51.446;-2.018;2023-08-06T05:21:30;101412.13;;;10.86;100.00
55679;BME280;41573;51.446;-2.018;2023-08-06T05:23:55;101404.91;;;10.89;100.00
55679;BME280;41573;51.446;-2.018;2023-08-06T05:26:20;101420.81;;;10.90;100.00
55679;BME280;41573;51.446;-2.018;2023-08-06T05:28:46;101420.78;;;10.92;100.00
55679;BME280;41573;51.446;-2.018;2023-08-06T05:31:11;101429.38;;;10.97;100.00
55679;BME280;41573;51.446;-2.018;2023-08-06T05:33:37;101426.44;;;11.03;100.00
55679;BME280;41573;51.446;-2.018;2023-08-06T05:36:02;101427.94;;;11.09;100.00
55679;BME280;41573;51.446;-2.018;2023-08-06T05:38:27;101422.31;;;11.15;100.00
55679;BME280;41573;51.446;-2.018;2023-08-06T05:40:53;101407.88;;;11.19;100.00
55679;BME280;41573;51.446;-2.018;2023-08-06T05:43:18;101393.31;;;11.26;100.00
55679;BME280;41573;51.446;-2.018;2023-08-06T05:45:46;101378.00;;;11.30;100.00
55679;BME280;41573;51.446;-2.018;2023-08-06T05:48:12;101358.16;;;11.35;100.00
55679;BME280;41573;51.446;-2.018;2023-08-06T05:50:37;101335.50;;;11.44;100.00
55679;BME280;41573;51.446;-2.018;2023-08-06T05:53:02;101324.34;;;11.53;100.00
55679;BME280;41573;51.446;-2.018;2023-08-06T05:55:28;101288.66;;;11.56;100.00
55679;BME280;41573;51.446;-2.018;2023-08-06T05:57:53;101274.88;;;11.64;100.00
55679;BME280;41573;51.446;-2.018;2023-08-06T06:00:19;101255.09;;;11.68;100.00
55679;BME280;41573;51.446;-2.018;2023-08-06T06:02:44;101235.50;;;11.69;100.00
55679;BME280;41573;51.446;-2.018;2023-08-06T06:05:10;101238.53;;;11.79;100.00
55679;BME280;41573;51.446;-2.018;2023-08-06T06:07:36;101237.50;;;11.81;100.00
55679;BME280;41573;51.446;-2.018;2023-08-06T06:10:01;101226.38;;;11.89;100.00
55679;BME280;41573;51.446;-2.018;2023-08-06T06:12:26;101212.63;;;11.97;100.00
55679;BME280;41573;51.446;-2.018;2023-08-06T06:14:52;101206.97;;;12.03;100.00
55679;BME280;41573;51.446;-2.018;2023-08-06T06:17:17;101204.72;;;12.11;100.00
55679;BME280;41573;51.446;-2.018;2023-08-06T06:19:42;101196.44;;;12.16;100.00
55679;BME280;41573;51.446;-2.018;2023-08-06T06:22:07;101201.44;;;12.22;100.00
55679;BME280;41573;51.446;-2.018;2023-08-06T06:24:33;101200.63;;;12.36;100.00
55679;BME280;41573;51.446;-2.018;2023-08-06T06:26:58;101219.56;;;12.47;100.00
55679;BME280;41573;51.446;-2.018;2023-08-06T06:29:23;101193.38;;;12.54;100.00
55679;BME280;41573;51.446;-2.018;2023-08-06T06:31:49;101175.00;;;12.64;100.00
55679;BME280;41573;51.446;-2.018;2023-08-06T06:34:14;101182.72;;;12.68;100.00
55679;BME280;41573;51.446;-2.018;2023-08-06T06:36:39;101172.53;;;12.75;100.00
55679;BME280;41573;51.446;-2.018;2023-08-06T06:39:04;101159.53;;;12.83;100.00
55679;BME280;41573;51.446;-2.018;2023-08-06T06:41:30;101150.97;;;12.92;100.00
55679;BME280;41573;51.446;-2.018;2023-08-06T06:43:58;101154.16;;;12.99;100.00
55679;BME280;41573;51.446;-2.018;2023-08-06T06:46:23;101153.38;;;13.11;100.00
55679;BME280;41573;51.446;-2.018;2023-08-06T06:48:48;101152.91;;;13.19;100.00
55679;BME280;41573;51.446;-2.018;2023-08-06T06:51:13;101157.66;;;13.28;100.00
55679;BME280;41573;51.446;-2.018;2023-08-06T06:53:39;101141.84;;;13.40;100.00
55679;BME280;41573;51.446;-2.018;2023-08-06T06:56:04;101133.34;;;13.48;100.00
55679;BME280;41573;51.446;-2.018;2023-08-06T06:58:30;101126.22;;;13.61;100.00
55679;BME280;41573;51.446;-2.018;2023-08-06T07:00:55;101105.28;;;13.68;100.00
55679;BME280;41573;51.446;-2.018;2023-08-06T07:03:20;101102.56;;;13.82;100.00
55679;BME280;41573;51.446;-2.018;2023-08-06T07:05:46;101105.25;;;13.82;100.00
55679;BME280;41573;51.446;-2.018;2023-08-06T07:08:11;101103.88;;;13.89;100.00
55679;BME280;41573;51.446;-2.018;2023-08-06T07:10:36;101088.66;;;13.90;100.00
55679;BME280;41573;51.446;-2.018;2023-08-06T07:13:02;101068.63;;;13.83;100.00
55679;BME280;41573;51.446;-2.018;2023-08-06T07:15:27;101045.28;;;13.85;100.00
55679;BME280;41573;51.446;-2.018;2023-08-06T07:17:52;101044.13;;;13.89;100.00
55679;BME280;41573;51.446;-2.018;2023-08-06T07:20:17;101039.53;;;13.91;100.00
55679;BME280;41573;51.446;-2.018;2023-08-06T07:22:43;101029.88;;;13.88;100.00
55679;BME280;41573;51.446;-2.018;2023-08-06T07:25:08;101027.75;;;13.93;100.00
55679;BME280;41573;51.446;-2.018;2023-08-06T07:27:34;101020.47;;;13.95;100.00
55679;BME280;41573;51.446;-2.018;2023-08-06T07:29:59;101008.06;;;13.94;100.00
55679;BME280;41573;51.446;-2.018;2023-08-06T07:32:24;101002.03;;;13.91;100.00
55679;BME280;41573;51.446;-2.018;2023-08-06T07:34:50;100982.88;;;13.97;100.00
55679;BME280;41573;51.446;-2.018;2023-08-06T07:37:15;100968.00;;;14.06;100.00
55679;BME280;41573;51.446;-2.018;2023-08-06T07:39:41;100945.72;;;14.05;100.00
55679;BME280;41573;51.446;-2.018;2023-08-06T07:42:07;100929.66;;;14.18;100.00
55679;BME280;41573;51.446;-2.018;2023-08-06T07:44:33;100929.44;;;14.21;100.00
55679;BME280;41573;51.446;-2.018;2023-08-06T07:46:58;100909.31;;;14.28;100.00
55679;BME280;41573;51.446;-2.018;2023-08-06T07:49:23;100908.22;;;14.31;100.00
55679;BME280;41573;51.446;-2.018;2023-08-06T07:51:48;100897.94;;;14.38;100.00
55679;BME280;41573;51.446;-2.018;2023-08-06T07:54:14;100872.84;;;14.39;100.00
55679;BME280;41573;51.446;-2.018;2023-08-06T07:56:39;100857.34;;;14.55;100.00
55679;BME280;41573;51.446;-2.018;2023-08-06T07:59:04;100841.41;;;14.54;100.00
55679;BME280;41573;51.446;-2.018;2023-08-06T08:01:30;100822.75;;;14.52;100.00
55679;BME280;41573;51.446;-2.018;2023-08-06T08:03:55;100801.59;;;14.60;100.00
55679;BME280;41573;51.446;-2.018;2023-08-06T08:06:20;100797.25;;;14.83;100.00
55679;BME280;41573;51.446;-2.018;2023-08-06T08:08:46;100776.97;;;15.04;100.00
55679;BME280;41573;51.446;-2.018;2023-08-06T08:11:11;100754.84;;;15.24;100.00
55679;BME280;41573;51.446;-2.018;2023-08-06T08:13:36;100751.56;;;15.43;100.00
55679;BME280;41573;51.446;-2.018;2023-08-06T08:16:01;100703.03;;;15.24;100.00
55679;BME280;41573;51.446;-2.018;2023-08-06T08:18:27;100675.31;;;15.23;100.00
55679;BME280;41573;51.446;-2.018;2023-08-06T08:20:52;100668.50;;;15.19;100.00
55679;BME280;41573;51.446;-2.018;2023-08-06T08:23:18;100664.59;;;15.23;100.00
55679;BME280;41573;51.446;-2.018;2023-08-06T08:25:43;100673.84;;;15.19;100.00
55679;BME280;41573;51.446;-2.018;2023-08-06T08:28:08;100657.28;;;15.25;100.00
55679;BME280;41573;51.446;-2.018;2023-08-06T08:30:33;100653.38;;;15.52;100.00
55679;BME280;41573;51.446;-2.018;2023-08-06T08:32:59;100665.22;;;15.72;100.00
55679;BME280;41573;51.446;-2.018;2023-08-06T08:35:24;100657.03;;;15.74;100.00
55679;BME280;41573;51.446;-2.018;2023-08-06T08:37:50;100637.16;;;15.65;100.00
55679;BME280;41573;51.446;-2.018;2023-08-06T08:40:15;100626.75;;;15.72;100.00
55679;BME280;41573;51.446;-2.018;2023-08-06T08:42:40;100585.78;;;15.69;100.00
55679;BME280;41573;51.446;-2.018;2023-08-06T08:45:11;100586.94;;;15.99;100.00
55679;BME280;41573;51.446;-2.018;2023-08-06T08:47:36;100606.16;;;16.16;100.00
55679;BME280;41573;51.446;-2.018;2023-08-06T08:50:02;100603.06;;;16.32;100.00
55679;BME280;41573;51.446;-2.018;2023-08-06T08:52:29;100592.16;;;16.33;100.00
55679;BME280;41573;51.446;-2.018;2023-08-06T08:54:56;100554.69;;;16.32;100.00
55679;BME280;41573;51.446;-2.018;2023-08-06T08:57:21;100511.41;;;16.35;100.00
55679;BME280;41573;51.446;-2.018;2023-08-06T08:59:46;100507.63;;;16.37;100.00
55679;BME280;41573;51.446;-2.018;2023-08-06T09:02:12;100457.75;;;16.24;100.00
55679;BME280;41573;51.446;-2.018;2023-08-06T09:04:38;100445.22;;;16.34;100.00
55679;BME280;41573;51.446;-2.018;2023-08-06T09:07:04;100418.81;;;16.39;100.00
55679;BME280;41573;51.446;-2.018;2023-08-06T09:09:34;100410.59;;;16.41;100.00
55679;BME280;41573;51.446;-2.018;2023-08-06T09:12:02;100413.63;;;16.57;100.00
55679;BME280;41573;51.446;-2.018;2023-08-06T09:14:31;100422.75;;;16.76;100.00
55679;BME280;41573;51.446;-2.018;2023-08-06T09:16:56;100395.59;;;16.79;100.00
55679;BME280;41573;51.446;-2.018;2023-08-06T09:19:22;100383.41;;;16.75;100.00
55679;BME280;41573;51.446;-2.018;2023-08-06T09:21:47;100397.47;;;16.88;100.00
55679;BME280;41573;51.446;-2.018;2023-08-06T09:24:15;100412.63;;;16.89;100.00
55679;BME280;41573;51.446;-2.018;2023-08-06T09:26:41;100401.22;;;16.66;100.00
55679;BME280;41573;51.446;-2.018;2023-08-06T09:29:07;100414.88;;;16.53;100.00
55679;BME280;41573;51.446;-2.018;2023-08-06T09:31:54;100413.50;;;16.28;100.00
55679;BME280;41573;51.446;-2.018;2023-08-06T09:36:51;100404.31;;;15.99;100.00
55679;BME280;41573;51.446;-2.018;2023-08-06T09:39:17;100427.94;;;16.06;100.00
55679;BME280;41573;51.446;-2.018;2023-08-06T09:41:43;100435.16;;;16.05;100.00
55679;BME280;41573;51.446;-2.018;2023-08-06T09:44:18;100444.78;;;16.08;100.00
55679;BME280;41573;51.446;-2.018;2023-08-06T09:46:51;100430.22;;;16.10;100.00
55679;BME280;41573;51.446;-2.018;2023-08-06T09:49:18;100432.25;;;16.18;100.00
55679;BME280;41573;51.446;-2.018;2023-08-06T09:51:43;100434.78;;;16.41;100.00
55679;BME280;41573;51.446;-2.018;2023-08-06T09:54:09;100447.13;;;16.53;100.00
55679;BME280;41573;51.446;-2.018;2023-08-06T09:56:37;100434.59;;;16.63;100.00
55679;BME280;41573;51.446;-2.018;2023-08-06T09:59:06;100426.44;;;16.75;100.00
55679;BME280;41573;51.446;-2.018;2023-08-06T10:01:35;100413.63;;;16.57;100.00
55679;BME280;41573;51.446;-2.018;2023-08-06T10:04:01;100414.03;;;16.52;100.00
55679;BME280;41573;51.446;-2.018;2023-08-06T10:06:28;100415.44;;;16.47;100.00
55679;BME280;41573;51.446;-2.018;2023-08-06T10:08:53;100424.19;;;16.39;100.00
55679;BME280;41573;51.446;-2.018;2023-08-06T10:11:19;100419.91;;;16.36;100.00
55679;BME280;41573;51.446;-2.018;2023-08-06T10:13:46;100438.22;;;16.52;100.00
55679;BME280;41573;51.446;-2.018;2023-08-06T10:16:12;100428.63;;;16.60;100.00
55679;BME280;41573;51.446;-2.018;2023-08-06T10:18:37;100424.13;;;16.70;100.00
55679;BME280;41573;51.446;-2.018;2023-08-06T10:21:04;100438.28;;;16.93;100.00
55679;BME280;41573;51.446;-2.018;2023-08-06T10:23:41;100450.91;;;17.12;100.00
55679;BME280;41573;51.446;-2.018;2023-08-06T10:26:07;100467.25;;;17.40;100.00
55679;BME280;41573;51.446;-2.018;2023-08-06T10:28:36;100476.50;;;17.57;100.00
55679;BME280;41573;51.446;-2.018;2023-08-06T10:31:02;100468.53;;;17.65;100.00
55679;BME280;41573;51.446;-2.018;2023-08-06T10:33:45;100435.09;;;17.58;100.00
55679;BME280;41573;51.446;-2.018;2023-08-06T10:36:11;100448.44;;;17.40;100.00
55679;BME280;41573;51.446;-2.018;2023-08-06T10:38:43;100440.03;;;17.23;100.00
55679;BME280;41573;51.446;-2.018;2023-08-06T10:41:09;100431.78;;;17.05;100.00
55679;BME280;41573;51.446;-2.018;2023-08-06T10:43:39;100442.41;;;17.17;100.00
55679;BME280;41573;51.446;-2.018;2023-08-06T10:46:10;100452.47;;;17.15;100.00
55679;BME280;41573;51.446;-2.018;2023-08-06T10:48:43;100453.78;;;17.20;100.00
55679;BME280;41573;51.446;-2.018;2023-08-06T10:51:11;100469.66;;;17.43;100.00
55679;BME280;41573;51.446;-2.018;2023-08-06T10:53:36;100472.81;;;17.48;100.00
55679;BME280;41573;51.446;-2.018;2023-08-06T10:56:02;100485.22;;;17.39;100.00
55679;BME280;41573;51.446;-2.018;2023-08-06T10:58:36;100488.06;;;17.38;100.00
55679;BME280;41573;51.446;-2.018;2023-08-06T11:01:02;100504.75;;;17.22;100.00
55679;BME280;41573;51.446;-2.018;2023-08-06T11:03:27;100506.59;;;17.21;100.00
55679;BME280;41573;51.446;-2.018;2023-08-06T11:05:53;100512.13;;;17.20;100.00
55679;BME280;41573;51.446;-2.018;2023-08-06T11:08:25;100511.22;;;17.10;100.00
55679;BME280;41573;51.446;-2.018;2023-08-06T11:10:50;100516.09;;;17.16;100.00
55679;BME280;41573;51.446;-2.018;2023-08-06T11:13:18;100525.91;;;17.36;100.00
55679;BME280;41573;51.446;-2.018;2023-08-06T11:15:45;100526.91;;;17.55;100.00
55679;BME280;41573;51.446;-2.018;2023-08-06T11:18:10;100511.38;;;17.68;100.00
55679;BME280;41573;51.446;-2.018;2023-08-06T11:20:36;100515.34;;;17.84;100.00
55679;BME280;41573;51.446;-2.018;2023-08-06T11:23:01;100508.00;;;18.05;100.00
55679;BME280;41573;51.446;-2.018;2023-08-06T11:25:26;100523.28;;;18.05;100.00
55679;BME280;41573;51.446;-2.018;2023-08-06T11:27:52;100534.63;;;17.89;100.00
55679;BME280;41573;51.446;-2.018;2023-08-06T11:30:17;100546.78;;;17.73;100.00
55679;BME280;41573;51.446;-2.018;2023-08-06T11:32:46;100553.72;;;17.66;100.00
55679;BME280;41573;51.446;-2.018;2023-08-06T11:35:12;100566.63;;;17.53;100.00
55679;BME280;41573;51.446;-2.018;2023-08-06T11:37:38;100589.03;;;17.22;100.00
55679;BME280;41573;51.446;-2.018;2023-08-06T11:40:06;100593.88;;;16.98;100.00
55679;BME280;41573;51.446;-2.018;2023-08-06T11:42:33;100608.44;;;16.74;100.00
55679;BME280;41573;51.446;-2.018;2023-08-06T11:44:58;100611.59;;;16.58;100.00
55679;BME280;41573;51.446;-2.018;2023-08-06T11:47:23;100619.69;;;16.47;100.00
55679;BME280;41573;51.446;-2.018;2023-08-06T11:49:49;100615.31;;;16.46;100.00
55679;BME280;41573;51.446;-2.018;2023-08-06T11:52:18;100607.72;;;16.51;100.00
55679;BME280;41573;51.446;-2.018;2023-08-06T11:54:49;100575.53;;;16.40;100.00
55679;BME280;41573;51.446;-2.018;2023-08-06T11:57:24;100559.19;;;16.31;100.00
55679;BME280;41573;51.446;-2.018;2023-08-06T11:59:49;100562.06;;;16.40;100.00
55679;BME280;41573;51.446;-2.018;2023-08-06T12:02:14;100570.41;;;16.58;100.00
55679;BME280;41573;51.446;-2.018;2023-08-06T12:07:31;100573.25;;;17.08;100.00
55679;BME280;41573;51.446;-2.018;2023-08-06T12:09:57;100574.16;;;17.28;100.00
55679;BME280;41573;51.446;-2.018;2023-08-06T12:12:22;100571.72;;;17.56;100.00
55679;BME280;41573;51.446;-2.018;2023-08-06T12:14:48;100548.78;;;17.71;100.00
55679;BME280;41573;51.446;-2.018;2023-08-06T12:17:13;100544.16;;;17.93;100.00
55679;BME280;41573;51.446;-2.018;2023-08-06T12:19:38;100537.06;;;18.12;100.00
55679;BME280;41573;51.446;-2.018;2023-08-06T12:22:03;100535.59;;;18.47;100.00
55679;BME280;41573;51.446;-2.018;2023-08-06T12:24:29;100506.63;;;18.49;100.00
55679;BME280;41573;51.446;-2.018;2023-08-06T12:26:56;100512.47;;;18.54;100.00
55679;BME280;41573;51.446;-2.018;2023-08-06T12:29:22;100491.22;;;18.31;100.00
55679;BME280;41573;51.446;-2.018;2023-08-06T12:31:48;100482.69;;;18.36;100.00
55679;BME280;41573;51.446;-2.018;2023-08-06T12:34:13;100476.03;;;18.30;100.00